EZY67MW EGGD-EHAM
Flight info
| Callsign | EZY67MW |
|---|---|
| Flight time | N/A |
| Altitude | 29000 |
| Route | YORQI L607 ALHAD P72 IPRIL M197 REDFA |
| Aircraft | A319/M-SDE2E3FGIJ1RWXYZ/LB1 |
Departure
| Time | 2026-05-03 22:59 |
|---|---|
| Airport | Bristol Airport (EGGD) |
Arrival
| Time | N/A |
|---|---|
| Airport | Amsterdam Airport Schiphol (EHAM) |
| Time | Latitude | Longitude | Altitude | Speed | Heading |
|---|---|---|---|---|---|
| 2026-05-03 22:41 | 51.38551 | -2.71538 | 595 ft | 0 kts | 356° |
| 2026-05-03 22:50 | 51.38550 | -2.71538 | 595 ft | 1 kts | 356° |
| 2026-05-03 22:50 | 51.38536 | -2.71537 | 595 ft | 2 kts | 356° |
| 2026-05-03 22:51 | 51.38522 | -2.71535 | 596 ft | 2 kts | 356° |
| 2026-05-03 22:51 | 51.38507 | -2.71534 | 596 ft | 2 kts | 356° |
| 2026-05-03 22:51 | 51.38492 | -2.71533 | 597 ft | 2 kts | 356° |
| 2026-05-03 22:51 | 51.38477 | -2.71531 | 597 ft | 2 kts | 356° |
| 2026-05-03 22:52 | 51.38468 | -2.71530 | 598 ft | 1 kts | 356° |
| 2026-05-03 22:52 | 51.38454 | -2.71525 | 598 ft | 0 kts | 323° |
| 2026-05-03 22:54 | 51.38458 | -2.71536 | 598 ft | 2 kts | 281° |
| 2026-05-03 22:54 | 51.38438 | -2.71672 | 600 ft | 22 kts | 257° |
| 2026-05-03 22:54 | 51.38429 | -2.71897 | 604 ft | 20 kts | 270° |
| 2026-05-03 22:54 | 51.38427 | -2.72111 | 606 ft | 18 kts | 265° |
| 2026-05-03 22:55 | 51.38419 | -2.72301 | 610 ft | 18 kts | 265° |
| 2026-05-03 22:55 | 51.38408 | -2.72567 | 612 ft | 26 kts | 266° |
| 2026-05-03 22:55 | 51.38398 | -2.72843 | 610 ft | 26 kts | 266° |
| 2026-05-03 22:55 | 51.38388 | -2.73111 | 602 ft | 16 kts | 266° |
| 2026-05-03 22:56 | 51.38387 | -2.73142 | 601 ft | 0 kts | 266° |
| 2026-05-03 22:57 | 51.38385 | -2.73200 | 599 ft | 14 kts | 264° |
| 2026-05-03 22:57 | 51.38347 | -2.73318 | 596 ft | 16 kts | 221° |
| 2026-05-03 22:58 | 51.38239 | -2.73329 | 596 ft | 14 kts | 159° |
| 2026-05-03 22:58 | 51.38216 | -2.73240 | 601 ft | 9 kts | 83° |
| 2026-05-03 22:58 | 51.38233 | -2.72764 | 616 ft | 84 kts | 86° |
| 2026-05-03 22:58 | 51.38282 | -2.71563 | 615 ft | 149 kts | 86° |
| 2026-05-03 22:59 | 51.38343 | -2.69919 | 1203 ft | 157 kts | 87° |
| 2026-05-03 22:59 | 51.38397 | -2.68270 | 1996 ft | 160 kts | 88° |
| 2026-05-03 22:59 | 51.38449 | -2.66586 | 2752 ft | 163 kts | 89° |
| 2026-05-03 22:59 | 51.38503 | -2.64794 | 3241 ft | 178 kts | 89° |
| 2026-05-03 23:00 | 51.38564 | -2.62785 | 3735 ft | 194 kts | 89° |
| 2026-05-03 23:00 | 51.38629 | -2.60625 | 4181 ft | 215 kts | 90° |
| 2026-05-03 23:00 | 51.38699 | -2.58302 | 4644 ft | 235 kts | 90° |
| 2026-05-03 23:00 | 51.38805 | -2.56434 | 5051 ft | 249 kts | 84° |
| 2026-05-03 23:01 | 51.40171 | -2.51618 | 5899 ft | 280 kts | 44° |
| 2026-05-03 23:01 | 51.41825 | -2.50046 | 5991 ft | 287 kts | 18° |
| 2026-05-03 23:01 | 51.43584 | -2.49456 | 6004 ft | 288 kts | 10° |
| 2026-05-03 23:02 | 51.45401 | -2.48732 | 6047 ft | 293 kts | 21° |
| 2026-05-03 23:02 | 51.47139 | -2.47504 | 6697 ft | 297 kts | 28° |
| 2026-05-03 23:02 | 51.48673 | -2.46146 | 7585 ft | 296 kts | 31° |
| 2026-05-03 23:02 | 51.50327 | -2.44503 | 8370 ft | 302 kts | 37° |
| 2026-05-03 23:03 | 51.51622 | -2.42180 | 9067 ft | 305 kts | 65° |
| 2026-05-03 23:03 | 51.52110 | -2.39117 | 9808 ft | 302 kts | 94° |
| 2026-05-03 23:03 | 51.51938 | -2.35914 | 10485 ft | 307 kts | 102° |
| 2026-05-03 23:03 | 51.51638 | -2.32708 | 10912 ft | 323 kts | 103° |
| 2026-05-03 23:04 | 51.51305 | -2.29210 | 11293 ft | 342 kts | 99° |
| 2026-05-03 23:04 | 51.51010 | -2.25518 | 11777 ft | 356 kts | 99° |
| 2026-05-03 23:04 | 51.50772 | -2.22083 | 12448 ft | 360 kts | 99° |
| 2026-05-03 23:04 | 51.50526 | -2.18431 | 13163 ft | 364 kts | 99° |
| 2026-05-03 23:05 | 51.50264 | -2.14601 | 13839 ft | 370 kts | 99° |
| 2026-05-03 23:05 | 51.49998 | -2.10761 | 14491 ft | 376 kts | 99° |
| 2026-05-03 23:05 | 51.49717 | -2.06764 | 15154 ft | 381 kts | 99° |
| 2026-05-03 23:05 | 51.49456 | -2.03063 | 15749 ft | 386 kts | 99° |
| 2026-05-03 23:06 | 51.49155 | -1.98829 | 16407 ft | 392 kts | 100° |
| 2026-05-03 23:06 | 51.48863 | -1.94723 | 17024 ft | 397 kts | 100° |
| 2026-05-03 23:06 | 51.48580 | -1.90765 | 17599 ft | 402 kts | 100° |
| 2026-05-03 23:06 | 51.48282 | -1.86617 | 18182 ft | 407 kts | 100° |
| 2026-05-03 23:07 | 51.47969 | -1.82295 | 18770 ft | 412 kts | 100° |
| 2026-05-03 23:07 | 51.47657 | -1.78013 | 19335 ft | 417 kts | 100° |
| 2026-05-03 23:07 | 51.47337 | -1.73649 | 19893 ft | 422 kts | 101° |
| 2026-05-03 23:07 | 51.47024 | -1.69489 | 20408 ft | 426 kts | 102° |
| 2026-05-03 23:08 | 51.46553 | -1.64967 | 20958 ft | 428 kts | 106° |
| 2026-05-03 23:08 | 51.45970 | -1.60529 | 21492 ft | 432 kts | 107° |
| 2026-05-03 23:08 | 51.45375 | -1.56256 | 21990 ft | 437 kts | 108° |
| 2026-05-03 23:08 | 51.44736 | -1.51703 | 22506 ft | 441 kts | 108° |
| 2026-05-03 23:09 | 51.44093 | -1.47077 | 23015 ft | 446 kts | 108° |
| 2026-05-03 23:09 | 51.43456 | -1.42458 | 23510 ft | 450 kts | 108° |